createdAt,value
2017-08-02T00:00:47.562Z,0
2017-08-02T00:01:49.238Z,0
2017-08-02T00:02:50.891Z,0
2017-08-02T00:03:52.558Z,0
2017-08-02T00:04:54.220Z,0
2017-08-02T00:05:55.883Z,0
2017-08-02T00:06:57.542Z,0
2017-08-02T00:07:59.196Z,0
2017-08-02T00:09:00.862Z,0
2017-08-02T00:10:02.522Z,0
2017-08-02T00:11:04.219Z,0
2017-08-02T00:12:05.881Z,0
2017-08-02T00:13:07.547Z,0
2017-08-02T00:14:09.207Z,0
2017-08-02T00:15:10.865Z,0
2017-08-02T00:16:12.526Z,0
2017-08-02T00:17:14.187Z,0
2017-08-02T00:18:15.856Z,0
2017-08-02T00:19:17.511Z,0
2017-08-02T00:20:19.174Z,0
2017-08-02T00:21:20.846Z,0
2017-08-02T00:22:22.505Z,0
2017-08-02T00:23:24.164Z,0
2017-08-02T00:24:25.830Z,0
2017-08-02T00:25:27.494Z,0
2017-08-02T00:26:29.156Z,0
2017-08-02T00:27:30.894Z,0
2017-08-02T00:28:32.561Z,0
2017-08-02T00:29:34.217Z,0
2017-08-02T00:30:35.885Z,0
2017-08-02T00:31:37.551Z,0
2017-08-02T00:32:39.207Z,0
2017-08-02T00:33:40.966Z,0
2017-08-02T00:34:42.628Z,0
2017-08-02T00:35:44.291Z,0
2017-08-02T00:36:45.949Z,0
2017-08-02T00:37:47.607Z,0
2017-08-02T00:38:49.278Z,0
2017-08-02T00:39:50.936Z,0
2017-08-02T00:40:52.597Z,0
2017-08-02T00:41:54.268Z,0
2017-08-02T00:42:55.931Z,0
2017-08-02T00:43:57.587Z,0
2017-08-02T00:44:59.245Z,0
2017-08-02T00:46:00.912Z,0
2017-08-02T00:47:02.569Z,0
2017-08-02T00:48:04.257Z,0
2017-08-02T00:49:05.909Z,0
2017-08-02T00:50:07.563Z,0
2017-08-02T00:51:09.220Z,0
2017-08-02T00:52:10.881Z,0
2017-08-02T00:53:12.546Z,0
2017-08-02T00:54:14.207Z,0
2017-08-02T00:55:15.870Z,0
2017-08-02T00:56:17.530Z,0
2017-08-02T00:57:19.207Z,0
2017-08-02T00:58:20.864Z,0
2017-08-02T00:59:22.517Z,0
2017-08-02T01:00:24.177Z,0
2017-08-02T01:01:25.835Z,0
2017-08-02T01:02:27.502Z,0
2017-08-02T01:03:29.162Z,0
2017-08-02T01:04:30.824Z,0
2017-08-02T01:05:32.479Z,0
2017-08-02T01:06:34.137Z,0
2017-08-02T01:07:35.801Z,0
2017-08-02T01:08:37.464Z,0
2017-08-02T01:09:39.131Z,0
2017-08-02T01:10:40.795Z,0
2017-08-02T01:11:42.458Z,0
2017-08-02T01:12:44.120Z,0
2017-08-02T01:13:45.782Z,0
2017-08-02T01:14:47.454Z,0
2017-08-02T01:15:49.106Z,0
2017-08-02T01:16:50.766Z,0
2017-08-02T01:17:52.432Z,0
2017-08-02T01:18:54.096Z,0
2017-08-02T01:19:55.757Z,0
2017-08-02T01:20:57.432Z,0
2017-08-02T01:21:59.089Z,0
2017-08-02T01:23:00.750Z,0
2017-08-02T01:24:02.414Z,0
2017-08-02T01:25:04.078Z,0
2017-08-02T01:26:05.744Z,0
2017-08-02T01:27:07.409Z,0
2017-08-02T01:28:09.073Z,0
2017-08-02T01:29:10.729Z,0
2017-08-02T01:30:12.388Z,0
2017-08-02T01:31:14.058Z,0
2017-08-02T01:32:15.816Z,0
2017-08-02T01:33:17.488Z,0
2017-08-02T01:34:19.152Z,0
2017-08-02T01:35:20.811Z,0
2017-08-02T01:36:22.485Z,0
2017-08-02T01:37:24.156Z,0
2017-08-02T01:38:25.813Z,0
2017-08-02T01:39:27.476Z,0
2017-08-02T01:40:29.137Z,0
2017-08-02T01:41:30.794Z,0
2017-08-02T01:42:32.464Z,0
2017-08-02T01:43:34.125Z,0
2017-08-02T01:44:35.787Z,0
2017-08-02T01:45:38.339Z,0
2017-08-02T01:46:39.060Z,0
2017-08-02T01:47:40.726Z,0
2017-08-02T01:48:42.395Z,0
2017-08-02T01:49:44.056Z,0
2017-08-02T01:50:45.711Z,0
2017-08-02T01:51:47.369Z,0
2017-08-02T01:52:49.030Z,0
2017-08-02T01:53:50.723Z,0
2017-08-02T01:54:52.376Z,0
2017-08-02T01:55:54.041Z,0
2017-08-02T01:56:55.706Z,0
2017-08-02T01:57:57.386Z,0
2017-08-02T01:58:59.028Z,0
2017-08-02T02:00:00.695Z,0
2017-08-02T02:01:02.361Z,0
2017-08-02T02:02:04.028Z,0
2017-08-02T02:03:05.693Z,0
2017-08-02T02:04:07.352Z,0
2017-08-02T02:05:09.011Z,0
2017-08-02T02:06:10.676Z,0
2017-08-02T02:07:12.335Z,0
2017-08-02T02:08:13.996Z,0
2017-08-02T02:09:15.659Z,0
2017-08-02T02:10:17.323Z,0
2017-08-02T02:11:18.984Z,0
2017-08-02T02:12:20.652Z,0
2017-08-02T02:13:22.311Z,0
2017-08-02T02:14:23.969Z,0
2017-08-02T02:15:25.635Z,0
2017-08-02T02:16:27.294Z,0
2017-08-02T02:17:28.953Z,0
2017-08-02T02:18:30.664Z,0
2017-08-02T02:19:32.331Z,0
2017-08-02T02:20:33.989Z,0
2017-08-02T02:21:35.647Z,0
2017-08-02T02:22:37.309Z,0
2017-08-02T02:23:38.979Z,0
2017-08-02T02:24:40.632Z,0
2017-08-02T02:25:42.290Z,0
2017-08-02T02:26:43.950Z,0
2017-08-02T02:27:45.613Z,0
2017-08-02T02:28:47.278Z,0
2017-08-02T02:29:48.944Z,0
2017-08-02T02:30:50.607Z,0
2017-08-02T02:31:52.278Z,0
2017-08-02T02:32:53.938Z,0
2017-08-02T02:33:55.602Z,0
2017-08-02T02:34:57.268Z,0
2017-08-02T02:35:58.936Z,0
2017-08-02T02:37:00.599Z,0
2017-08-02T02:38:02.260Z,0
2017-08-02T02:39:03.915Z,0
2017-08-02T02:40:05.566Z,0
2017-08-02T02:41:07.231Z,0
2017-08-02T02:42:08.888Z,0
2017-08-02T02:43:10.553Z,0
2017-08-02T02:44:12.227Z,0
2017-08-02T02:45:13.889Z,0
2017-08-02T02:46:15.544Z,0
2017-08-02T02:47:17.198Z,0
2017-08-02T02:48:18.861Z,0
2017-08-02T02:49:20.524Z,0
2017-08-02T02:50:22.184Z,0
2017-08-02T02:51:23.853Z,0
2017-08-02T02:52:25.514Z,0
2017-08-02T02:53:27.176Z,0
2017-08-02T02:54:28.828Z,0
2017-08-02T02:55:30.493Z,0
2017-08-02T02:56:32.165Z,0
2017-08-02T02:57:33.911Z,0
2017-08-02T02:58:35.572Z,0
2017-08-02T02:59:37.235Z,0
2017-08-02T03:00:38.903Z,0
2017-08-02T03:01:40.630Z,0
2017-08-02T03:02:42.283Z,0
2017-08-02T03:03:43.943Z,0
2017-08-02T03:04:45.599Z,0
2017-08-02T03:05:47.264Z,0
2017-08-02T03:06:48.923Z,0
2017-08-02T03:07:50.584Z,0
2017-08-02T03:08:52.242Z,0
2017-08-02T03:09:53.905Z,0
2017-08-02T03:10:55.567Z,0
2017-08-02T03:11:57.232Z,0
2017-08-02T03:12:58.893Z,0
2017-08-02T03:14:00.577Z,0
2017-08-02T03:15:02.240Z,0
2017-08-02T03:16:03.897Z,0
2017-08-02T03:17:05.558Z,0
2017-08-02T03:18:07.222Z,0
2017-08-02T03:19:08.878Z,0
2017-08-02T03:20:10.545Z,0
2017-08-02T03:21:12.208Z,0
2017-08-02T03:22:13.870Z,0
2017-08-02T03:23:15.536Z,0
2017-08-02T03:24:17.200Z,0
2017-08-02T03:25:18.866Z,0
2017-08-02T03:26:20.534Z,0
2017-08-02T03:27:22.196Z,0
2017-08-02T03:28:23.879Z,0
2017-08-02T03:29:25.540Z,0
2017-08-02T03:30:27.207Z,0
2017-08-02T03:31:28.863Z,0
2017-08-02T03:32:30.526Z,0
2017-08-02T03:33:32.187Z,0
2017-08-02T03:34:33.865Z,0
2017-08-02T03:35:35.533Z,0
2017-08-02T03:36:37.203Z,0
2017-08-02T03:37:38.870Z,0
2017-08-02T03:38:40.535Z,0
2017-08-02T03:39:42.192Z,0
2017-08-02T03:40:43.852Z,0
2017-08-02T03:41:45.518Z,0
2017-08-02T03:42:47.178Z,5
2017-08-02T03:43:48.841Z,5
2017-08-02T03:44:50.497Z,5
2017-08-02T03:45:52.158Z,5
2017-08-02T03:46:53.819Z,5
2017-08-02T03:47:55.482Z,5
2017-08-02T03:48:57.152Z,5
2017-08-02T03:49:58.816Z,5
2017-08-02T03:51:00.472Z,5
2017-08-02T03:52:02.136Z,5
2017-08-02T03:53:03.800Z,5
2017-08-02T03:54:05.465Z,5
2017-08-02T03:55:07.133Z,5
2017-08-02T03:56:08.794Z,5
2017-08-02T03:57:10.458Z,10
2017-08-02T03:58:12.114Z,10
2017-08-02T03:59:13.792Z,10
2017-08-02T04:00:15.458Z,10
2017-08-02T04:01:17.119Z,10
2017-08-02T04:02:18.783Z,15
2017-08-02T04:03:20.453Z,15
2017-08-02T04:04:22.114Z,15
2017-08-02T04:05:23.776Z,20
2017-08-02T04:06:25.443Z,20
2017-08-02T04:07:27.114Z,20
2017-08-02T04:08:28.777Z,25
2017-08-02T04:09:30.443Z,25
2017-08-02T04:10:32.106Z,25
2017-08-02T04:11:33.768Z,25
2017-08-02T04:12:35.436Z,25
2017-08-02T04:13:37.104Z,25
2017-08-02T04:14:38.762Z,25
2017-08-02T04:15:40.423Z,25
2017-08-02T04:16:42.117Z,30
2017-08-02T04:17:43.785Z,30
2017-08-02T04:18:45.448Z,30
2017-08-02T04:19:47.106Z,35
2017-08-02T04:20:48.765Z,35
2017-08-02T04:21:50.439Z,40
2017-08-02T04:22:52.110Z,40
2017-08-02T04:23:53.787Z,45
2017-08-02T04:24:55.467Z,45
2017-08-02T04:25:57.116Z,50
2017-08-02T04:26:58.780Z,50
2017-08-02T04:28:00.448Z,55
2017-08-02T04:29:02.116Z,55
2017-08-02T04:30:03.775Z,60
2017-08-02T04:31:05.445Z,65
2017-08-02T04:32:07.112Z,70
2017-08-02T04:33:08.787Z,80
2017-08-02T04:34:10.457Z,85
2017-08-02T04:35:12.127Z,90
2017-08-02T04:36:13.794Z,95
2017-08-02T04:37:15.458Z,95
2017-08-02T04:38:17.130Z,100
2017-08-02T04:39:18.785Z,100
2017-08-02T04:40:20.454Z,100
2017-08-02T04:41:22.139Z,100
2017-08-02T04:42:23.812Z,105
2017-08-02T04:43:25.478Z,110
2017-08-02T04:44:27.145Z,115
2017-08-02T04:45:28.820Z,110
2017-08-02T04:46:30.484Z,110
2017-08-02T04:47:32.156Z,115
2017-08-02T04:48:33.818Z,115
2017-08-02T04:49:35.486Z,115
2017-08-02T04:50:37.153Z,120
2017-08-02T04:51:38.819Z,120
2017-08-02T04:52:40.483Z,120
2017-08-02T04:53:42.148Z,125
2017-08-02T04:54:43.815Z,130
2017-08-02T04:55:45.483Z,135
2017-08-02T04:56:47.147Z,140
2017-08-02T04:57:48.811Z,140
2017-08-02T04:58:50.478Z,140
2017-08-02T04:59:52.153Z,140
2017-08-02T05:00:53.819Z,135
2017-08-02T05:01:55.498Z,140
2017-08-02T05:02:57.157Z,130
2017-08-02T05:03:58.825Z,125
2017-08-02T05:05:00.490Z,120
2017-08-02T05:06:02.155Z,120
2017-08-02T05:07:03.829Z,120
2017-08-02T05:08:05.504Z,120
2017-08-02T05:09:07.175Z,120
2017-08-02T05:10:08.837Z,125
2017-08-02T05:11:10.501Z,125
2017-08-02T05:12:12.164Z,130
2017-08-02T05:13:13.835Z,135
2017-08-02T05:14:15.510Z,145
2017-08-02T05:15:17.184Z,155
2017-08-02T05:16:18.857Z,170
2017-08-02T05:17:20.535Z,200
2017-08-02T05:18:22.213Z,260
2017-08-02T05:19:23.870Z,255
2017-08-02T05:20:25.536Z,275
2017-08-02T05:21:27.231Z,330
2017-08-02T05:22:28.886Z,360
2017-08-02T05:23:30.559Z,340
2017-08-02T05:24:32.233Z,295
2017-08-02T05:25:33.898Z,275
2017-08-02T05:26:35.567Z,255
2017-08-02T05:27:37.234Z,250
2017-08-02T05:28:38.901Z,235
2017-08-02T05:29:40.572Z,220
2017-08-02T05:30:42.249Z,220
2017-08-02T05:31:43.916Z,215
2017-08-02T05:32:45.594Z,205
2017-08-02T05:33:47.256Z,200
2017-08-02T05:34:48.932Z,200
2017-08-02T05:35:50.602Z,195
2017-08-02T05:36:52.271Z,185
2017-08-02T05:37:53.936Z,180
2017-08-02T05:38:55.701Z,190
2017-08-02T05:39:57.369Z,210
2017-08-02T05:40:59.030Z,230
2017-08-02T05:42:00.702Z,270
2017-08-02T05:43:02.370Z,230
2017-08-02T05:44:04.044Z,220
2017-08-02T05:45:05.731Z,240
2017-08-02T05:46:07.397Z,300
2017-08-02T05:47:09.059Z,235
2017-08-02T05:48:10.738Z,245
2017-08-02T05:49:12.409Z,325
2017-08-02T05:50:14.080Z,430
2017-08-02T05:51:15.764Z,385
2017-08-02T05:52:17.451Z,380
2017-08-02T05:53:19.117Z,430
2017-08-02T05:54:20.791Z,435
2017-08-02T05:55:22.454Z,380
2017-08-02T05:56:24.127Z,620
2017-08-02T05:57:25.799Z,670
2017-08-02T05:58:27.465Z,670
2017-08-02T05:59:29.136Z,640
2017-08-02T06:00:30.811Z,670
2017-08-02T06:01:32.481Z,605
2017-08-02T06:02:34.295Z,690
2017-08-02T06:03:35.972Z,670
2017-08-02T06:04:37.641Z,685
2017-08-02T06:05:39.307Z,705
2017-08-02T06:06:40.980Z,740
2017-08-02T06:07:42.658Z,735
2017-08-02T06:08:44.326Z,670
2017-08-02T06:09:45.999Z,620
2017-08-02T06:10:47.673Z,665
2017-08-02T06:11:49.352Z,660
2017-08-02T06:12:51.014Z,720
2017-08-02T06:13:52.690Z,695
2017-08-02T06:14:54.354Z,730
2017-08-02T06:15:56.029Z,700
2017-08-02T06:16:57.700Z,735
2017-08-02T06:17:59.367Z,700
2017-08-02T06:19:01.044Z,700
2017-08-02T06:20:02.721Z,665
2017-08-02T06:21:04.395Z,670
2017-08-02T06:22:06.068Z,665
2017-08-02T06:23:07.741Z,660
2017-08-02T06:24:09.414Z,685
2017-08-02T06:25:11.087Z,675
2017-08-02T06:26:12.760Z,665
2017-08-02T06:27:14.437Z,690
2017-08-02T06:28:16.114Z,860
2017-08-02T06:29:17.788Z,855
2017-08-02T06:30:19.460Z,865
2017-08-02T06:31:21.140Z,870
2017-08-02T06:32:22.814Z,830
2017-08-02T06:33:24.490Z,730
2017-08-02T06:34:26.166Z,725
2017-08-02T06:35:27.841Z,705
2017-08-02T06:36:29.522Z,685
2017-08-02T06:37:31.200Z,655
2017-08-02T06:38:32.892Z,655
2017-08-02T06:39:34.563Z,645
2017-08-02T06:40:36.245Z,625
2017-08-02T06:41:37.923Z,590
2017-08-02T06:42:39.603Z,565
2017-08-02T06:43:41.284Z,545
2017-08-02T06:44:42.971Z,590
2017-08-02T06:45:44.644Z,525
2017-08-02T06:46:46.317Z,490
2017-08-02T06:47:48.000Z,505
2017-08-02T06:48:49.669Z,550
2017-08-02T06:49:51.340Z,570
2017-08-02T06:50:53.013Z,640
2017-08-02T06:51:54.688Z,705
2017-08-02T06:52:56.359Z,680
2017-08-02T06:53:58.040Z,705
2017-08-02T06:54:59.721Z,780
2017-08-02T06:56:01.408Z,770
2017-08-02T06:57:03.084Z,775
2017-08-02T06:58:04.756Z,795
2017-08-02T06:59:06.441Z,770
2017-08-02T07:00:08.104Z,725
2017-08-02T07:01:09.781Z,685
2017-08-02T07:02:11.458Z,650
2017-08-02T07:03:13.141Z,675
2017-08-02T07:04:14.820Z,660
2017-08-02T07:05:16.499Z,640
2017-08-02T07:06:18.179Z,645
2017-08-02T07:07:19.859Z,665
2017-08-02T07:08:21.547Z,680
2017-08-02T07:09:23.224Z,685
2017-08-02T07:10:24.918Z,670
2017-08-02T07:11:26.600Z,670
2017-08-02T07:12:28.274Z,700
2017-08-02T07:13:29.951Z,735
2017-08-02T07:14:31.630Z,710
2017-08-02T07:15:33.312Z,650
2017-08-02T07:16:34.991Z,715
2017-08-02T07:17:36.669Z,675
2017-08-02T07:18:38.352Z,730
2017-08-02T07:19:40.035Z,705
2017-08-02T07:20:41.712Z,680
2017-08-02T07:21:43.384Z,700
2017-08-02T07:22:45.061Z,755
2017-08-02T07:23:46.748Z,795
2017-08-02T07:24:48.430Z,870
2017-08-02T07:25:50.124Z,890
2017-08-02T07:26:51.794Z,910
2017-08-02T07:27:53.478Z,845
2017-08-02T07:28:55.155Z,860
2017-08-02T07:29:56.840Z,880
2017-08-02T07:30:58.519Z,835
2017-08-02T07:32:00.206Z,780
2017-08-02T07:33:01.892Z,765
2017-08-02T07:34:03.565Z,685
2017-08-02T07:35:05.247Z,680
2017-08-02T07:36:06.920Z,720
2017-08-02T07:37:08.604Z,840
2017-08-02T07:38:10.274Z,895
2017-08-02T07:39:11.956Z,870
2017-08-02T07:40:13.664Z,860
2017-08-02T07:41:15.332Z,860
2017-08-02T07:42:17.005Z,875
2017-08-02T07:43:18.691Z,855
2017-08-02T07:44:20.511Z,835
2017-08-02T07:45:22.165Z,895
2017-08-02T07:46:23.844Z,840
2017-08-02T07:47:25.536Z,840
2017-08-02T07:48:27.213Z,890
2017-08-02T07:49:28.902Z,1005
2017-08-02T07:50:30.590Z,1180
2017-08-02T07:51:32.270Z,1160
2017-08-02T07:52:33.945Z,1135
2017-08-02T07:53:35.626Z,1350
2017-08-02T07:54:37.304Z,1500
2017-08-02T07:55:38.985Z,1920
2017-08-02T07:56:40.663Z,2235
2017-08-02T07:57:42.335Z,2130
2017-08-02T07:58:44.010Z,2085
2017-08-02T07:59:45.688Z,2270
2017-08-02T08:00:47.362Z,3435
2017-08-02T08:01:49.045Z,3020
2017-08-02T08:02:50.714Z,2280
2017-08-02T08:03:52.405Z,2695
2017-08-02T08:04:54.087Z,1695
2017-08-02T08:05:55.764Z,3335
2017-08-02T08:06:57.450Z,3095
2017-08-02T08:07:59.126Z,3230
2017-08-02T08:09:00.815Z,3315
2017-08-02T08:10:02.490Z,2510
2017-08-02T08:11:04.166Z,3110
2017-08-02T08:12:05.852Z,2620
2017-08-02T08:13:07.534Z,2290
2017-08-02T08:14:09.215Z,2720
2017-08-02T08:15:10.898Z,2715
2017-08-02T08:16:12.571Z,2160
2017-08-02T08:17:14.257Z,2250
2017-08-02T08:18:15.940Z,1085
2017-08-02T08:19:17.615Z,1420
2017-08-02T08:20:19.293Z,2000
2017-08-02T08:21:20.983Z,1590
2017-08-02T08:22:22.664Z,2405
2017-08-02T08:23:24.351Z,2310
2017-08-02T08:24:26.024Z,2395
2017-08-02T08:25:27.728Z,2365
2017-08-02T08:26:29.392Z,2405
2017-08-02T08:27:31.084Z,2420
2017-08-02T08:28:32.759Z,2505
2017-08-02T08:29:34.441Z,2555
2017-08-02T08:30:36.120Z,2395
2017-08-02T08:31:37.805Z,2345
2017-08-02T08:32:39.486Z,2540
2017-08-02T08:33:41.232Z,2670
2017-08-02T08:34:42.919Z,2685
2017-08-02T08:35:44.602Z,2360
2017-08-02T08:36:46.289Z,1880
2017-08-02T08:37:47.984Z,1475
2017-08-02T08:38:49.671Z,1020
2017-08-02T08:39:51.393Z,895
2017-08-02T08:40:53.076Z,725
2017-08-02T08:41:54.758Z,695
2017-08-02T08:42:56.437Z,715
2017-08-02T08:43:58.128Z,925
2017-08-02T08:44:59.807Z,1090
2017-08-02T08:46:01.485Z,1290
2017-08-02T08:47:03.173Z,1195
2017-08-02T08:48:04.849Z,1260
2017-08-02T08:49:06.530Z,1370
2017-08-02T08:50:08.226Z,1715
2017-08-02T08:51:09.901Z,2055
2017-08-02T08:52:11.588Z,2280
2017-08-02T08:53:13.273Z,2180
2017-08-02T08:54:14.946Z,935
2017-08-02T08:55:16.619Z,825
2017-08-02T08:56:18.307Z,1425
2017-08-02T08:57:20.022Z,1620
2017-08-02T08:58:21.707Z,1790
2017-08-02T08:59:23.390Z,2345
2017-08-02T09:00:25.070Z,1805
2017-08-02T09:01:26.752Z,2515
2017-08-02T09:02:28.437Z,2190
2017-08-02T09:03:30.125Z,1300
2017-08-02T09:04:31.806Z,2535
2017-08-02T09:05:33.487Z,1570
2017-08-02T09:06:35.166Z,1380
2017-08-02T09:07:36.839Z,1245
2017-08-02T09:08:38.524Z,980
2017-08-02T09:09:40.206Z,1090
2017-08-02T09:10:41.888Z,1755
2017-08-02T09:11:43.567Z,1345
2017-08-02T09:12:45.259Z,1415
2017-08-02T09:13:46.937Z,1670
2017-08-02T09:14:48.615Z,1350
2017-08-02T09:15:50.295Z,1575
2017-08-02T09:16:51.977Z,1725
2017-08-02T09:17:53.716Z,2020
2017-08-02T09:18:55.393Z,1910
2017-08-02T09:19:57.079Z,1505
2017-08-02T09:20:58.778Z,1245
2017-08-02T09:22:00.451Z,940
2017-08-02T09:23:02.136Z,815
2017-08-02T09:24:03.818Z,750
2017-08-02T09:25:05.501Z,840
2017-08-02T09:26:07.179Z,970
2017-08-02T09:27:08.879Z,1060
2017-08-02T09:28:10.698Z,1090
2017-08-02T09:29:12.365Z,1055
2017-08-02T09:30:14.046Z,1030
2017-08-02T09:31:15.721Z,1145
2017-08-02T09:32:17.724Z,1275
2017-08-02T09:33:19.397Z,1385
2017-08-02T09:34:21.073Z,1425
2017-08-02T09:35:22.758Z,1540
2017-08-02T09:36:24.438Z,1540
2017-08-02T09:37:26.113Z,1515
2017-08-02T09:38:27.789Z,1500
2017-08-02T09:39:29.576Z,1445
2017-08-02T09:40:31.260Z,1440
2017-08-02T09:41:32.940Z,1515
2017-08-02T09:42:34.624Z,1495
2017-08-02T09:43:36.300Z,1470
2017-08-02T09:44:37.981Z,1640
2017-08-02T09:45:39.657Z,1620
2017-08-02T09:46:41.335Z,1835
2017-08-02T09:47:43.009Z,1620
2017-08-02T09:48:44.689Z,1545
2017-08-02T09:49:46.371Z,1850
2017-08-02T09:50:48.048Z,1330
2017-08-02T09:51:49.724Z,1275
2017-08-02T09:52:51.399Z,1225
2017-08-02T09:53:53.079Z,1065
2017-08-02T09:54:54.761Z,950
2017-08-02T09:55:56.435Z,1760
2017-08-02T09:56:58.117Z,1550
2017-08-02T09:57:59.795Z,1920
2017-08-02T09:59:01.466Z,2085
2017-08-02T10:00:03.147Z,2360
2017-08-02T10:01:04.830Z,1970
2017-08-02T10:02:06.543Z,1680
2017-08-02T10:03:08.230Z,2045
2017-08-02T10:04:09.911Z,2430
2017-08-02T10:05:11.670Z,2285
2017-08-02T10:06:13.350Z,2010
2017-08-02T10:07:15.173Z,1940
2017-08-02T10:08:16.862Z,1970
2017-08-02T10:09:18.554Z,2010
2017-08-02T10:10:20.241Z,1930
2017-08-02T10:11:21.923Z,1885
2017-08-02T10:12:23.603Z,1905
2017-08-02T10:13:25.293Z,2590
2017-08-02T10:14:26.973Z,3945
2017-08-02T10:15:28.659Z,4385
2017-08-02T10:16:30.342Z,3830
2017-08-02T10:17:32.022Z,3450
2017-08-02T10:18:33.701Z,3350
2017-08-02T10:19:35.376Z,3380
2017-08-02T10:20:37.066Z,3440
2017-08-02T10:21:38.750Z,3560
2017-08-02T10:22:40.430Z,4055
2017-08-02T10:23:42.130Z,4230
2017-08-02T10:24:43.851Z,4205
2017-08-02T10:25:45.545Z,3000
2017-08-02T10:26:47.238Z,4140
2017-08-02T10:27:48.916Z,3575
2017-08-02T10:28:50.635Z,2910
2017-08-02T10:29:52.295Z,2435
2017-08-02T10:30:53.993Z,1025
2017-08-02T10:31:55.678Z,1185
2017-08-02T10:32:57.369Z,905
2017-08-02T10:33:59.035Z,890
2017-08-02T10:35:00.726Z,1130
2017-08-02T10:36:02.410Z,1500
2017-08-02T10:37:04.089Z,2530
2017-08-02T10:38:05.771Z,2400
2017-08-02T10:39:07.449Z,860
2017-08-02T10:40:09.129Z,780
2017-08-02T10:41:10.812Z,1390
2017-08-02T10:42:12.488Z,2140
2017-08-02T10:43:14.165Z,1455
2017-08-02T10:44:15.878Z,2105
2017-08-02T10:45:17.555Z,690
2017-08-02T10:46:19.240Z,645
2017-08-02T10:47:20.926Z,620
2017-08-02T10:48:22.606Z,605
2017-08-02T10:49:24.284Z,605
2017-08-02T10:50:25.964Z,630
2017-08-02T10:51:27.642Z,655
2017-08-02T10:52:29.335Z,675
2017-08-02T10:53:31.015Z,710
2017-08-02T10:54:32.698Z,750
2017-08-02T10:55:34.372Z,805
2017-08-02T10:56:36.041Z,760
2017-08-02T10:57:37.714Z,705
2017-08-02T10:58:39.393Z,660
2017-08-02T10:59:41.086Z,755
2017-08-02T11:00:42.769Z,2720
2017-08-02T11:01:44.450Z,4055
2017-08-02T11:02:46.127Z,3735
2017-08-02T11:03:47.824Z,2330
2017-08-02T11:04:49.535Z,905
2017-08-02T11:05:51.220Z,890
2017-08-02T11:06:52.901Z,865
2017-08-02T11:07:54.575Z,790
2017-08-02T11:08:56.269Z,655
2017-08-02T11:09:57.940Z,545
2017-08-02T11:10:59.620Z,460
2017-08-02T11:12:01.290Z,420
2017-08-02T11:13:02.969Z,425
2017-08-02T11:14:04.644Z,495
2017-08-02T11:15:06.315Z,690
2017-08-02T11:16:08.008Z,1330
2017-08-02T11:17:09.676Z,1380
2017-08-02T11:18:11.348Z,1425
2017-08-02T11:19:13.030Z,1120
2017-08-02T11:20:14.720Z,1115
2017-08-02T11:21:16.392Z,2045
2017-08-02T11:22:18.067Z,1515
2017-08-02T11:23:19.749Z,1175
2017-08-02T11:24:21.430Z,885
2017-08-02T11:25:23.096Z,805
2017-08-02T11:26:24.771Z,815
2017-08-02T11:27:26.445Z,810
2017-08-02T11:28:28.125Z,825
2017-08-02T11:29:29.808Z,915
2017-08-02T11:30:31.488Z,1025
2017-08-02T11:31:33.158Z,1035
2017-08-02T11:32:34.837Z,1075
2017-08-02T11:33:36.507Z,1250
2017-08-02T11:34:38.189Z,1715
2017-08-02T11:35:39.872Z,1830
2017-08-02T11:36:41.549Z,1365
2017-08-02T11:37:43.283Z,1320
2017-08-02T11:38:44.979Z,1365
2017-08-02T11:39:46.696Z,1410
2017-08-02T11:40:48.371Z,3015
2017-08-02T11:41:50.060Z,3480
2017-08-02T11:42:51.737Z,3250
2017-08-02T11:43:53.429Z,2455
2017-08-02T11:44:55.105Z,2220
2017-08-02T11:45:56.776Z,3020
2017-08-02T11:46:58.456Z,2125
2017-08-02T11:48:00.138Z,1720
2017-08-02T11:49:01.822Z,1730
2017-08-02T11:50:03.513Z,1605
2017-08-02T11:51:05.197Z,1500
2017-08-02T11:52:06.876Z,1545
2017-08-02T11:53:08.577Z,1540
2017-08-02T11:54:10.248Z,1600
2017-08-02T11:55:11.930Z,2020
2017-08-02T11:56:13.605Z,2235
2017-08-02T11:57:15.287Z,3400
2017-08-02T11:58:17.026Z,2610
2017-08-02T11:59:18.700Z,2625
2017-08-02T12:00:20.376Z,2580
2017-08-02T12:01:22.061Z,3025
2017-08-02T12:02:23.762Z,3115
2017-08-02T12:03:25.449Z,1830
2017-08-02T12:04:27.122Z,1660
2017-08-02T12:05:28.796Z,1595
2017-08-02T12:06:30.476Z,1840
2017-08-02T12:07:32.149Z,1710
2017-08-02T12:08:33.830Z,1595
2017-08-02T12:09:35.534Z,1595
2017-08-02T12:10:37.218Z,1665
2017-08-02T12:11:38.903Z,1810
2017-08-02T12:12:40.589Z,1880
2017-08-02T12:13:42.276Z,1820
2017-08-02T12:14:44.760Z,1780
2017-08-02T12:15:46.439Z,1655
2017-08-02T12:16:48.119Z,1560
2017-08-02T12:17:49.802Z,1670
2017-08-02T12:18:51.495Z,2405
2017-08-02T12:19:53.175Z,3515
2017-08-02T12:20:54.854Z,1885
2017-08-02T12:21:56.541Z,1475
2017-08-02T12:22:58.221Z,1195
2017-08-02T12:23:59.917Z,1375
2017-08-02T12:25:01.585Z,1235
2017-08-02T12:26:03.264Z,1200
2017-08-02T12:27:04.972Z,1465
2017-08-02T12:28:07.169Z,1345
2017-08-02T12:29:08.857Z,1105
2017-08-02T12:30:10.541Z,975
2017-08-02T12:31:12.220Z,960
2017-08-02T12:32:13.930Z,1285
2017-08-02T12:33:15.612Z,2405
2017-08-02T12:34:17.292Z,4035
2017-08-02T12:35:18.978Z,2290
2017-08-02T12:36:20.651Z,2700
2017-08-02T12:37:22.337Z,2090
2017-08-02T12:38:24.014Z,1970
2017-08-02T12:39:25.695Z,1940
2017-08-02T12:40:27.375Z,1975
2017-08-02T12:41:29.069Z,1735
2017-08-02T12:42:30.744Z,1700
2017-08-02T12:43:32.422Z,1575
2017-08-02T12:44:34.100Z,1935
2017-08-02T12:45:35.774Z,2325
2017-08-02T12:46:37.460Z,1915
2017-08-02T12:47:39.139Z,1745
2017-08-02T12:48:40.816Z,2295
2017-08-02T12:49:42.497Z,2025
2017-08-02T12:50:44.235Z,1635
2017-08-02T12:51:45.911Z,2380
2017-08-02T12:52:47.588Z,2805
2017-08-02T12:53:49.272Z,1690
2017-08-02T12:54:50.973Z,1350
2017-08-02T12:55:52.670Z,1180
2017-08-02T12:56:54.361Z,1095
2017-08-02T12:57:56.037Z,1065
2017-08-02T12:58:57.717Z,975
2017-08-02T12:59:59.400Z,760
2017-08-02T13:01:01.077Z,600
2017-08-02T13:02:02.762Z,460
2017-08-02T13:03:04.460Z,365
2017-08-02T13:04:06.145Z,285
2017-08-02T13:05:07.819Z,230
2017-08-02T13:06:09.534Z,185
2017-08-02T13:07:11.215Z,160
2017-08-02T13:08:12.888Z,190
2017-08-02T13:09:14.569Z,270
2017-08-02T13:10:16.255Z,345
2017-08-02T13:11:17.935Z,390
2017-08-02T13:12:19.615Z,400
2017-08-02T13:13:21.304Z,380
2017-08-02T13:14:22.978Z,375
2017-08-02T13:15:24.651Z,380
2017-08-02T13:16:26.339Z,360
2017-08-02T13:17:28.008Z,335
2017-08-02T13:18:29.693Z,310
2017-08-02T13:19:31.402Z,290
2017-08-02T13:20:33.065Z,285
2017-08-02T13:21:34.739Z,300
2017-08-02T13:22:36.415Z,325
2017-08-02T13:23:38.091Z,375
2017-08-02T13:24:39.760Z,445
2017-08-02T13:25:41.433Z,515
2017-08-02T13:26:43.097Z,555
2017-08-02T13:27:44.804Z,640
2017-08-02T13:28:46.471Z,745
2017-08-02T13:29:48.163Z,830
2017-08-02T13:30:49.834Z,910
2017-08-02T13:31:51.509Z,1020
2017-08-02T13:32:53.188Z,1135
2017-08-02T13:33:54.863Z,1235
2017-08-02T13:34:56.867Z,1300
2017-08-02T13:35:58.530Z,1380
2017-08-02T13:37:00.195Z,1420
2017-08-02T13:38:01.890Z,1440
2017-08-02T13:39:03.557Z,1450
2017-08-02T13:40:05.230Z,1420
2017-08-02T13:41:06.947Z,1405
2017-08-02T13:42:08.627Z,1360
2017-08-02T13:43:10.308Z,1290
2017-08-02T13:44:12.015Z,1225
2017-08-02T13:45:13.724Z,1230
2017-08-02T13:46:15.415Z,1340
2017-08-02T13:47:17.091Z,1430
2017-08-02T13:48:18.769Z,1450
2017-08-02T13:49:20.458Z,1580
2017-08-02T13:50:22.125Z,1640
2017-08-02T13:51:23.810Z,1870
2017-08-02T13:52:25.490Z,2340
2017-08-02T13:53:27.169Z,2180
2017-08-02T13:54:28.840Z,2030
2017-08-02T13:55:30.509Z,2470
2017-08-02T13:56:32.191Z,2315
2017-08-02T13:57:33.867Z,2415
2017-08-02T13:58:35.539Z,1800
2017-08-02T13:59:37.224Z,1590
2017-08-02T14:00:38.900Z,1545
2017-08-02T14:01:40.591Z,1715
2017-08-02T14:02:42.265Z,1740
2017-08-02T14:03:43.944Z,1520
2017-08-02T14:04:45.669Z,1335
2017-08-02T14:05:47.349Z,1210
2017-08-02T14:06:49.035Z,1110
2017-08-02T14:07:50.714Z,1095
2017-08-02T14:08:52.402Z,1185
2017-08-02T14:09:54.087Z,1280
2017-08-02T14:10:55.770Z,1380
2017-08-02T14:11:57.463Z,1435
2017-08-02T14:12:59.141Z,1465
2017-08-02T14:14:00.815Z,1745
2017-08-02T14:15:02.498Z,1510
2017-08-02T14:16:04.173Z,1520
2017-08-02T14:17:05.861Z,1635